Terminal Aerodrome Forecast
Issued by NWS

Home | Current Version | Previous Version | Text Only | Print | Product List | Glossary Off
Versions: 1 2 3 4 5 6 7 8 9 10 11 12 13 14 15 16

000
FTUS43 KICT 301700
TAFHUT
TAF
KHUT 301730Z 3018/0118 18016G24KT P6SM BKN080
     FM010200 16011KT P6SM VCTS BKN060CB
     FM011000 17013KT P6SM VCSH BKN060
     FM011600 18014G20KT P6SM SCT060=

USA.gov is the U.S. government's official web portal to all federal, state and local government web resources and services.